Time;durP1;ratioP1;P1;durP2;ratioP2;P2;SDS_P1;SDS_P2;PMS_P1;PMS_P2;Temp;Humidity;BMP_temperature;BMP_pressure;BME280_temperature;BME280_humidity;BME280_pressure;Samples;Min_cycle;Max_cycle;Signal;HPM_P1;HPM_P2
2022/06/12 00:00:10;;;;;;;4.07;2.13;;;;;;;;;;5195590;27;20229;-15
2022/06/12 00:02:37;;;;;;;5.22;2.10;;;;;;;;;;5196151;27;20235;-15
2022/06/12 00:05:12;;;;;;;5.85;2.72;;;;;;;;;;5196527;27;20233;-15
2022/06/12 00:07:39;;;;;;;6.22;2.50;;;;;;;;;;5193118;27;20274;-12
2022/06/12 00:10:07;;;;;;;4.30;1.90;;;;;;;;;;5184859;27;20230;-14
2022/06/12 00:12:34;;;;;;;4.57;2.15;;;;;;;;;;5195293;27;20235;-15
2022/06/12 00:15:02;;;;;;;5.85;2.38;;;;;;;;;;5196123;27;20231;-15
2022/06/12 00:17:30;;;;;;;7.28;2.33;;;;;;;;;;5213531;27;20236;-15
2022/06/12 00:19:57;;;;;;;5.35;2.00;;;;;;;;;;5202883;27;20702;-15
2022/06/12 00:22:26;;;;;;;4.60;1.98;;;;;;;;;;5203042;27;20272;-15
2022/06/12 00:24:53;;;;;;;5.50;2.25;;;;;;;;;;5208565;27;20232;-15
2022/06/12 00:27:21;;;;;;;6.15;2.15;;;;;;;;;;5202337;27;20240;-15
2022/06/12 00:29:50;;;;;;;4.85;2.50;;;;;;;;;;5201815;27;20230;-15
2022/06/12 00:32:17;;;;;;;5.55;2.20;;;;;;;;;;5198222;27;21086;-15
2022/06/12 00:34:45;;;;;;;4.85;2.20;;;;;;;;;;5201398;27;20253;-15
2022/06/12 00:37:13;;;;;;;4.82;2.13;;;;;;;;;;5205578;27;20233;-15
2022/06/12 00:39:42;;;;;;;5.32;1.95;;;;;;;;;;5195350;27;20236;-15
2022/06/12 00:42:10;;;;;;;4.13;2.10;;;;;;;;;;5210068;27;20225;-14
2022/06/12 00:44:42;;;;;;;4.53;1.98;;;;;;;;;;5189878;27;20227;-16
2022/06/12 00:47:11;;;;;;;6.20;2.40;;;;;;;;;;5205557;27;20228;-15
2022/06/12 00:49:40;;;;;;;6.90;2.45;;;;;;;;;;5212081;27;20231;-15
2022/06/12 00:52:09;;;;;;;5.03;1.85;;;;;;;;;;5212812;27;20297;-15
2022/06/12 00:54:37;;;;;;;5.78;2.10;;;;;;;;;;5194753;27;20991;-15
2022/06/12 00:57:06;;;;;;;5.30;2.28;;;;;;;;;;5206041;27;20217;-15
2022/06/12 00:59:34;;;;;;;4.13;2.20;;;;;;;;;;5209942;27;20248;-15
2022/06/12 01:02:02;;;;;;;5.03;2.42;;;;;;;;;;5194169;27;20229;-15
2022/06/12 01:07:15;;;;;;;5.95;2.40;;;;;;;;;;5192614;27;20237;-15
2022/06/12 01:09:43;;;;;;;4.70;2.38;;;;;;;;;;5196530;27;20225;-15
2022/06/12 01:12:14;;;;;;;4.63;2.10;;;;;;;;;;5196219;27;20225;-13
2022/06/12 01:14:42;;;;;;;5.85;1.80;;;;;;;;;;5200025;27;20602;-15
2022/06/12 01:17:10;;;;;;;5.95;2.17;;;;;;;;;;5193047;27;20225;-15
2022/06/12 01:19:38;;;;;;;5.90;2.50;;;;;;;;;;5201484;27;20742;-15
2022/06/12 01:22:16;;;;;;;5.95;2.60;;;;;;;;;;5181174;27;20385;-15
2022/06/12 01:24:47;;;;;;;4.18;2.10;;;;;;;;;;5203117;27;20227;-15
2022/06/12 01:27:26;;;;;;;5.57;2.60;;;;;;;;;;5215863;27;20229;-14
2022/06/12 01:29:56;;;;;;;3.53;1.98;;;;;;;;;;5203119;27;20232;-15
2022/06/12 01:32:25;;;;;;;3.67;2.00;;;;;;;;;;5200884;27;20223;-15
2022/06/12 01:34:53;;;;;;;4.20;1.98;;;;;;;;;;5203413;27;20237;-15
2022/06/12 01:37:23;;;;;;;4.82;2.40;;;;;;;;;;5196880;27;20224;-15
2022/06/12 01:39:52;;;;;;;4.63;1.88;;;;;;;;;;5194908;27;20245;-15
2022/06/12 01:42:21;;;;;;;3.83;2.00;;;;;;;;;;5194831;27;20675;-15
2022/06/12 01:44:50;;;;;;;6.07;2.25;;;;;;;;;;5194257;27;20692;-16
2022/06/12 01:47:21;;;;;;;6.13;2.40;;;;;;;;;;5196743;27;20742;-15
2022/06/12 01:49:49;;;;;;;4.65;1.92;;;;;;;;;;5216213;27;20229;-15
2022/06/12 01:52:20;;;;;;;5.20;2.00;;;;;;;;;;5201010;27;20691;-15
2022/06/12 01:54:49;;;;;;;6.90;2.08;;;;;;;;;;5204959;27;20236;-15
2022/06/12 01:57:17;;;;;;;5.03;2.05;;;;;;;;;;5196530;27;20221;-15
2022/06/12 01:59:46;;;;;;;5.47;1.77;;;;;;;;;;5206233;27;20232;-15
2022/06/12 02:02:15;;;;;;;4.93;2.13;;;;;;;;;;5199705;27;20229;-13
2022/06/12 02:04:46;;;;;;;6.53;2.05;;;;;;;;;;5184096;27;20228;-15
2022/06/12 02:07:15;;;;;;;3.75;1.77;;;;;;;;;;5206144;27;20240;-15
2022/06/12 02:09:44;;;;;;;4.32;1.88;;;;;;;;;;5203510;27;20231;-15
2022/06/12 02:15:00;;;;;;;5.78;2.35;;;;;;;;;;5204262;27;20233;-15
2022/06/12 02:17:28;;;;;;;3.67;1.80;;;;;;;;;;5193294;27;20229;-15
2022/06/12 02:19:57;;;;;;;5.80;1.98;;;;;;;;;;5203318;27;20225;-16
2022/06/12 02:22:25;;;;;;;5.65;2.00;;;;;;;;;;5142174;22;20244;-15
2022/06/12 02:24:54;;;;;;;4.50;1.85;;;;;;;;;;5094205;28;20228;-15
2022/06/12 02:27:22;;;;;;;3.85;2.03;;;;;;;;;;5095047;28;20239;-15
2022/06/12 02:29:50;;;;;;;4.40;1.80;;;;;;;;;;5094861;28;20236;-15
2022/06/12 02:32:19;;;;;;;2.13;1.52;;;;;;;;;;5093560;28;20221;-15
2022/06/12 02:34:48;;;;;;;4.78;2.00;;;;;;;;;;5093797;28;20225;-15
2022/06/12 02:37:19;;;;;;;2.75;1.80;;;;;;;;;;5093330;28;20899;-15
2022/06/12 02:39:47;;;;;;;2.20;1.52;;;;;;;;;;5093583;28;20240;-15
2022/06/12 02:42:18;;;;;;;5.10;1.80;;;;;;;;;;5092203;28;21026;-15
2022/06/12 02:44:46;;;;;;;3.53;1.40;;;;;;;;;;5092298;28;20243;-15
2022/06/12 02:47:13;;;;;;;3.33;1.60;;;;;;;;;;5095825;28;20229;-15
2022/06/12 02:49:43;;;;;;;6.53;1.70;;;;;;;;;;5099492;28;20610;-15
2022/06/12 02:52:13;;;;;;;4.78;2.10;;;;;;;;;;5093080;28;20220;-15
2022/06/12 02:54:43;;;;;;;5.43;1.60;;;;;;;;;;5090782;28;20904;-15
2022/06/12 02:57:11;;;;;;;3.00;1.40;;;;;;;;;;5093315;28;20228;-15
2022/06/12 02:59:42;;;;;;;3.47;1.42;;;;;;;;;;5093460;28;20236;-15
2022/06/12 03:02:11;;;;;;;2.30;1.63;;;;;;;;;;5092394;28;20228;-15
2022/06/12 03:04:40;;;;;;;2.03;1.30;;;;;;;;;;5091150;28;20347;-15
2022/06/12 03:07:07;;;;;;;4.30;1.70;;;;;;;;;;5093095;28;21047;-15
2022/06/12 03:09:34;;;;;;;3.95;1.85;;;;;;;;;;5092212;28;20232;-15
2022/06/12 03:12:04;;;;;;;4.35;1.67;;;;;;;;;;5092297;28;21007;-15
2022/06/12 03:14:31;;;;;;;6.00;1.60;;;;;;;;;;5092074;28;20266;-15
2022/06/12 03:16:58;;;;;;;3.22;1.70;;;;;;;;;;5095727;28;20229;-15
2022/06/12 03:19:26;;;;;;;2.75;1.25;;;;;;;;;;5093028;28;20241;-15
2022/06/12 03:21:57;;;;;;;3.90;1.50;;;;;;;;;;5080888;28;20256;-15
2022/06/12 03:24:27;;;;;;;3.08;1.45;;;;;;;;;;5072665;28;20228;-15
2022/06/12 03:26:57;;;;;;;2.75;1.38;;;;;;;;;;5071989;28;20229;-15
2022/06/12 03:29:27;;;;;;;3.40;1.42;;;;;;;;;;5072674;28;20232;-15
2022/06/12 03:31:56;;;;;;;4.18;1.55;;;;;;;;;;5072798;28;20226;-15
2022/06/12 03:34:26;;;;;;;5.78;1.80;;;;;;;;;;5072234;28;20303;-15
2022/06/12 03:36:55;;;;;;;6.78;2.33;;;;;;;;;;5070406;28;20233;-15
2022/06/12 03:39:23;;;;;;;2.08;1.27;;;;;;;;;;5072063;28;20236;-15
2022/06/12 03:41:52;;;;;;;4.25;1.60;;;;;;;;;;5072346;28;20240;-15
2022/06/12 03:44:21;;;;;;;3.53;1.30;;;;;;;;;;5071836;28;20259;-15
2022/06/12 03:46:51;;;;;;;3.35;1.58;;;;;;;;;;5071704;28;20221;-15
2022/06/12 03:49:22;;;;;;;5.28;2.08;;;;;;;;;;5071396;28;20265;-15
2022/06/12 03:51:51;;;;;;;2.58;1.33;;;;;;;;;;5072059;28;20225;-15
2022/06/12 03:54:21;;;;;;;3.28;1.52;;;;;;;;;;5071729;28;20672;-15
2022/06/12 03:59:35;;;;;;;4.35;1.60;;;;;;;;;;5070695;28;20238;-15
2022/06/12 04:02:06;;;;;;;4.93;1.50;;;;;;;;;;5070760;28;20238;-15
2022/06/12 04:04:33;;;;;;;4.05;1.38;;;;;;;;;;5071208;28;20233;-15
2022/06/12 04:07:01;;;;;;;5.00;1.23;;;;;;;;;;5071648;28;20229;-15
2022/06/12 04:09:30;;;;;;;4.38;1.50;;;;;;;;;;5070693;28;20608;-15
2022/06/12 04:11:58;;;;;;;2.83;1.48;;;;;;;;;;5067586;28;20233;-15
2022/06/12 04:14:26;;;;;;;3.75;1.25;;;;;;;;;;5071622;28;20237;-15
2022/06/12 04:16:54;;;;;;;7.03;1.70;;;;;;;;;;5071715;28;20233;-15
2022/06/12 04:19:24;;;;;;;2.47;1.15;;;;;;;;;;5071438;28;20232;-15
2022/06/12 04:21:52;;;;;;;3.50;1.60;;;;;;;;;;5070599;28;20256;-15
2022/06/12 04:24:21;;;;;;;2.50;1.40;;;;;;;;;;5071245;28;20234;-15
2022/06/12 04:26:50;;;;;;;2.35;1.10;;;;;;;;;;5070745;28;20210;-15
2022/06/12 04:29:19;;;;;;;3.13;1.50;;;;;;;;;;5071328;28;21085;-15
2022/06/12 04:31:47;;;;;;;2.35;1.30;;;;;;;;;;5070435;28;20229;-15
2022/06/12 04:34:16;;;;;;;4.03;1.90;;;;;;;;;;5071967;28;20612;-15
2022/06/12 04:36:45;;;;;;;2.75;1.40;;;;;;;;;;5071509;28;20229;-15
2022/06/12 04:39:13;;;;;;;2.95;1.40;;;;;;;;;;5070974;28;20231;-15
2022/06/12 04:41:40;;;;;;;2.95;1.40;;;;;;;;;;5071032;28;20247;-15
2022/06/12 04:44:08;;;;;;;4.72;1.70;;;;;;;;;;5070240;28;20226;-15
2022/06/12 04:46:36;;;;;;;3.50;1.25;;;;;;;;;;5071801;28;20241;-15
2022/06/12 04:49:03;;;;;;;4.82;1.60;;;;;;;;;;5070657;28;20233;-15
2022/06/12 04:51:31;;;;;;;3.92;1.33;;;;;;;;;;5071338;28;20282;-15
2022/06/12 04:53:59;;;;;;;3.13;1.77;;;;;;;;;;5070028;28;20221;-15
2022/06/12 04:56:27;;;;;;;3.92;1.80;;;;;;;;;;5072438;28;20234;-15
2022/06/12 04:58:55;;;;;;;5.70;1.98;;;;;;;;;;5071624;28;20271;-15
2022/06/12 05:01:23;;;;;;;3.35;1.70;;;;;;;;;;5070591;28;20277;-15
2022/06/12 05:03:56;;;;;;;4.60;1.80;;;;;;;;;;5070600;28;20704;-15
2022/06/12 05:06:23;;;;;;;8.27;1.70;;;;;;;;;;5068403;28;20225;-15
2022/06/12 05:08:50;;;;;;;5.07;1.98;;;;;;;;;;5068186;28;20240;-15
2022/06/12 05:11:19;;;;;;;6.50;1.75;;;;;;;;;;5068809;28;20229;-15
2022/06/12 05:13:47;;;;;;;7.80;2.08;;;;;;;;;;5068812;28;20879;-15
2022/06/12 05:16:17;;;;;;;8.95;2.42;;;;;;;;;;5058478;28;20706;-14
2022/06/12 05:18:44;;;;;;;5.05;1.85;;;;;;;;;;5069302;28;20712;-15
2022/06/12 05:21:12;;;;;;;5.57;2.30;;;;;;;;;;5069555;28;20245;-15
2022/06/12 05:23:39;;;;;;;6.97;2.20;;;;;;;;;;5070546;28;20229;-15
2022/06/12 05:26:07;;;;;;;9.18;2.00;;;;;;;;;;5070769;28;20229;-15
2022/06/12 05:28:35;;;;;;;8.88;2.30;;;;;;;;;;5069820;28;20239;-15
2022/06/12 05:31:03;;;;;;;5.88;1.88;;;;;;;;;;5070355;28;20973;-15
2022/06/12 05:33:30;;;;;;;7.75;2.28;;;;;;;;;;5070174;28;20226;-15
2022/06/12 05:35:58;;;;;;;6.38;2.00;;;;;;;;;;5064667;28;20237;-15
2022/06/12 05:38:25;;;;;;;8.85;2.10;;;;;;;;;;5070212;28;20237;-15
2022/06/12 05:40:53;;;;;;;7.68;2.25;;;;;;;;;;5069836;28;20730;-15
2022/06/12 05:43:20;;;;;;;8.55;2.55;;;;;;;;;;5070359;28;21085;-15
2022/06/12 05:45:49;;;;;;;8.57;2.20;;;;;;;;;;5069692;28;20283;-15
2022/06/12 05:48:17;;;;;;;5.90;1.88;;;;;;;;;;5069973;28;20727;-15
2022/06/12 05:50:46;;;;;;;6.78;2.58;;;;;;;;;;5069952;28;20233;-15
2022/06/12 05:53:14;;;;;;;10.45;2.60;;;;;;;;;;5069815;28;20229;-15
2022/06/12 05:55:42;;;;;;;9.13;2.55;;;;;;;;;;5060849;28;20234;-15
2022/06/12 05:58:09;;;;;;;8.82;2.45;;;;;;;;;;5062083;28;20230;-15
2022/06/12 06:00:37;;;;;;;8.52;3.42;;;;;;;;;;5066130;28;20234;-15
2022/06/12 06:03:06;;;;;;;7.47;2.60;;;;;;;;;;5066525;28;20234;-15
2022/06/12 06:05:34;;;;;;;7.78;2.75;;;;;;;;;;5068043;28;20226;-15
2022/06/12 06:08:02;;;;;;;8.93;3.22;;;;;;;;;;5062190;28;20828;-15
2022/06/12 06:10:29;;;;;;;8.88;3.03;;;;;;;;;;5056332;28;20236;-15
2022/06/12 06:12:57;;;;;;;8.00;3.08;;;;;;;;;;5062665;28;20234;-14
2022/06/12 06:15:24;;;;;;;9.30;2.78;;;;;;;;;;5068919;28;20237;-15
2022/06/12 06:17:52;;;;;;;11.30;3.05;;;;;;;;;;5067187;28;20905;-15
2022/06/12 06:20:22;;;;;;;11.50;3.38;;;;;;;;;;5069559;28;20236;-15
2022/06/12 06:22:50;;;;;;;8.82;2.78;;;;;;;;;;5068728;28;20276;-15
2022/06/12 06:25:17;;;;;;;10.57;3.15;;;;;;;;;;5067029;28;20229;-15
2022/06/12 06:27:45;;;;;;;9.25;3.20;;;;;;;;;;5069393;28;20244;-15
2022/06/12 06:30:18;;;;;;;8.82;3.25;;;;;;;;;;5068755;28;20238;-15
2022/06/12 06:32:45;;;;;;;12.82;3.53;;;;;;;;;;5068487;28;20225;-15
2022/06/12 06:35:13;;;;;;;13.07;3.22;;;;;;;;;;5066661;28;20234;-14
2022/06/12 06:37:42;;;;;;;12.88;3.25;;;;;;;;;;5067780;28;20225;-15
2022/06/12 06:40:10;;;;;;;14.35;3.40;;;;;;;;;;5060317;28;20228;-15
2022/06/12 06:42:37;;;;;;;10.07;3.28;;;;;;;;;;5067703;28;20241;-15
2022/06/12 06:47:50;;;;;;;15.40;3.58;;;;;;;;;;5070396;28;20240;-15
2022/06/12 06:50:18;;;;;;;13.68;3.67;;;;;;;;;;5069621;28;20226;-15
2022/06/12 06:52:46;;;;;;;13.98;3.30;;;;;;;;;;5072547;28;20273;-15
2022/06/12 06:55:14;;;;;;;11.88;3.40;;;;;;;;;;5068254;28;20229;-14
2022/06/12 06:57:42;;;;;;;15.05;3.60;;;;;;;;;;5072561;28;20235;-15
2022/06/12 07:00:10;;;;;;;14.55;3.42;;;;;;;;;;5069223;28;20226;-15
2022/06/12 07:02:39;;;;;;;10.68;3.30;;;;;;;;;;5066569;28;20242;-15
2022/06/12 07:05:06;;;;;;;12.63;3.22;;;;;;;;;;5070098;28;20225;-15
2022/06/12 07:07:34;;;;;;;14.15;3.22;;;;;;;;;;5069115;28;20237;-15
2022/06/12 07:10:03;;;;;;;18.58;3.40;;;;;;;;;;5059239;28;20241;-15
2022/06/12 07:12:31;;;;;;;9.80;2.80;;;;;;;;;;5069642;28;20226;-15
2022/06/12 07:14:59;;;;;;;12.88;3.35;;;;;;;;;;5067983;28;20244;-15
2022/06/12 07:17:26;;;;;;;13.18;3.65;;;;;;;;;;5063982;28;20229;-15
2022/06/12 07:19:54;;;;;;;12.60;3.40;;;;;;;;;;5070347;28;20245;-14
2022/06/12 07:22:21;;;;;;;16.95;3.40;;;;;;;;;;5069093;28;20245;-15
2022/06/12 07:24:49;;;;;;;18.13;3.75;;;;;;;;;;5071280;28;20264;-15
2022/06/12 07:27:17;;;;;;;14.32;3.30;;;;;;;;;;5069565;28;20237;-14
2022/06/12 07:29:45;;;;;;;15.52;3.35;;;;;;;;;;5067026;28;20604;-15
2022/06/12 07:32:12;;;;;;;17.00;3.30;;;;;;;;;;5070038;28;20278;-15
2022/06/12 07:34:39;;;;;;;15.43;3.95;;;;;;;;;;5070302;28;20237;-15
2022/06/12 07:37:07;;;;;;;13.23;3.50;;;;;;;;;;5065342;28;20226;-15
2022/06/12 07:39:34;;;;;;;19.15;4.40;;;;;;;;;;5069033;28;20234;-14
2022/06/12 07:42:02;;;;;;;12.82;3.30;;;;;;;;;;5059879;28;20293;-15
2022/06/12 07:44:31;;;;;;;10.48;3.28;;;;;;;;;;5067507;28;20225;-15
2022/06/12 07:46:59;;;;;;;16.52;3.95;;;;;;;;;;5066194;28;20237;-14
2022/06/12 07:49:26;;;;;;;9.95;3.00;;;;;;;;;;5070965;28;20234;-14
2022/06/12 07:51:54;;;;;;;14.70;3.03;;;;;;;;;;5071880;28;20232;-14
2022/06/12 07:54:21;;;;;;;18.73;3.65;;;;;;;;;;5071357;28;20234;-15
2022/06/12 07:56:49;;;;;;;14.93;3.05;;;;;;;;;;5070678;28;20229;-14
2022/06/12 07:59:16;;;;;;;11.45;3.28;;;;;;;;;;5069811;28;20727;-15
2022/06/12 08:01:45;;;;;;;14.65;3.30;;;;;;;;;;5069010;28;21059;-14
2022/06/12 08:04:12;;;;;;;15.75;3.58;;;;;;;;;;5070163;28;20952;-15
2022/06/12 08:06:40;;;;;;;15.05;3.08;;;;;;;;;;5064155;28;20244;-14
2022/06/12 08:09:07;;;;;;;10.07;3.45;;;;;;;;;;5069668;28;20287;-15
2022/06/12 08:11:35;;;;;;;16.50;3.80;;;;;;;;;;5069450;28;20500;-14
2022/06/12 08:14:02;;;;;;;13.57;2.92;;;;;;;;;;5069920;28;20459;-15
2022/06/12 08:16:36;;;;;;;15.18;3.80;;;;;;;;;;5070273;28;20225;-14
2022/06/12 08:20:24;;;;;;;14.20;3.92;;;;;;;;;;5070315;28;20742;-15
2022/06/12 08:21:53;;;;;;;18.83;3.88;;;;;;;;;;5071207;28;20657;-15
2022/06/12 08:24:20;;;;;;;13.73;3.72;;;;;;;;;;5070337;28;20685;-15
2022/06/12 08:26:48;;;;;;;14.63;3.78;;;;;;;;;;5071847;28;20226;-14
2022/06/12 08:29:22;;;;;;;15.05;4.05;;;;;;;;;;5066243;28;20431;-15
2022/06/12 08:31:51;;;;;;;10.65;3.65;;;;;;;;;;5069040;28;20229;-15
2022/06/12 08:34:22;;;;;;;11.25;2.97;;;;;;;;;;5064509;28;20241;-15
2022/06/12 08:36:50;;;;;;;10.55;3.22;;;;;;;;;;5067962;28;20277;-15
2022/06/12 08:39:17;;;;;;;11.73;3.20;;;;;;;;;;5068846;28;20641;-15
2022/06/12 08:41:46;;;;;;;10.52;2.97;;;;;;;;;;5067374;28;20234;-14
2022/06/12 08:44:15;;;;;;;9.98;2.75;;;;;;;;;;5066710;28;20229;-14
2022/06/12 08:46:45;;;;;;;10.85;3.35;;;;;;;;;;5067024;28;21040;-15
2022/06/12 08:49:15;;;;;;;7.60;2.90;;;;;;;;;;5068028;28;21811;-15
2022/06/12 08:51:45;;;;;;;12.13;3.10;;;;;;;;;;5069770;28;20333;-14
2022/06/12 08:54:14;;;;;;;17.67;4.00;;;;;;;;;;5068925;28;20432;-15
2022/06/12 08:56:42;;;;;;;12.95;3.55;;;;;;;;;;5067244;28;20236;-15
2022/06/12 08:59:10;;;;;;;14.32;3.28;;;;;;;;;;5069926;28;20256;-15
2022/06/12 09:01:41;;;;;;;12.15;3.30;;;;;;;;;;5064568;28;20233;-15
2022/06/12 09:04:09;;;;;;;12.05;3.83;;;;;;;;;;5068818;28;20276;-15
2022/06/12 09:06:38;;;;;;;17.25;3.70;;;;;;;;;;5063187;28;20237;-15
2022/06/12 09:09:08;;;;;;;13.07;3.78;;;;;;;;;;5069398;28;20234;-15
2022/06/12 09:11:37;;;;;;;11.88;3.35;;;;;;;;;;5068943;28;21012;-15
2022/06/12 09:14:08;;;;;;;15.27;3.22;;;;;;;;;;5068557;28;20237;-15
2022/06/12 09:16:36;;;;;;;12.33;3.57;;;;;;;;;;5066966;28;20436;-15
2022/06/12 09:19:05;;;;;;;11.90;3.22;;;;;;;;;;5065410;28;20230;-15
2022/06/12 09:21:35;;;;;;;8.73;3.08;;;;;;;;;;5065013;28;20271;-15
2022/06/12 09:24:05;;;;;;;9.23;3.42;;;;;;;;;;5068962;28;20456;-15
2022/06/12 09:26:37;;;;;;;20.40;3.47;;;;;;;;;;5068382;28;20328;-15
2022/06/12 09:29:07;;;;;;;15.30;3.08;;;;;;;;;;5068734;28;20238;-15
2022/06/12 09:31:35;;;;;;;15.27;3.35;;;;;;;;;;5067923;28;20235;-15
2022/06/12 09:34:04;;;;;;;13.82;3.13;;;;;;;;;;5070386;28;20252;-15
2022/06/12 09:36:39;;;;;;;14.77;3.50;;;;;;;;;;5070050;28;20233;-15
2022/06/12 09:39:07;;;;;;;12.77;2.97;;;;;;;;;;5069879;28;20236;-15
2022/06/12 09:41:40;;;;;;;11.40;3.10;;;;;;;;;;5070416;28;20236;-15
2022/06/12 09:44:10;;;;;;;9.40;2.85;;;;;;;;;;5069762;28;20238;-15
2022/06/12 09:46:39;;;;;;;12.63;2.90;;;;;;;;;;5069477;28;20268;-15
2022/06/12 09:49:09;;;;;;;11.32;3.25;;;;;;;;;;5068974;28;20283;-15
2022/06/12 09:51:41;;;;;;;8.07;2.53;;;;;;;;;;5069424;28;20229;-15
2022/06/12 09:54:21;;;;;;;11.27;2.67;;;;;;;;;;5061150;28;20225;-15
2022/06/12 09:56:52;;;;;;;8.60;2.80;;;;;;;;;;5070208;28;20237;-15
2022/06/12 09:59:20;;;;;;;10.98;3.85;;;;;;;;;;5070286;28;20229;-15
2022/06/12 10:01:48;;;;;;;6.88;2.42;;;;;;;;;;5067698;28;20228;-15
2022/06/12 10:04:17;;;;;;;9.68;2.53;;;;;;;;;;5069494;28;20237;-15
2022/06/12 10:06:45;;;;;;;5.78;2.25;;;;;;;;;;5070506;28;20230;-15
2022/06/12 10:09:13;;;;;;;8.02;2.42;;;;;;;;;;5070163;28;20242;-15
2022/06/12 10:11:41;;;;;;;8.95;2.22;;;;;;;;;;5069395;28;20233;-15
2022/06/12 10:14:11;;;;;;;7.50;2.28;;;;;;;;;;5068754;28;20236;-15
2022/06/12 10:16:39;;;;;;;9.18;2.17;;;;;;;;;;5070054;28;20344;-15
2022/06/12 10:19:28;;;;;;;7.13;2.50;;;;;;;;;;5073455;28;20831;-15
2022/06/12 10:21:56;;;;;;;7.07;2.05;;;;;;;;;;5072881;28;20249;-15
2022/06/12 10:24:24;;;;;;;10.30;3.17;;;;;;;;;;5072658;28;20241;-15
2022/06/12 10:26:55;;;;;;;8.55;2.28;;;;;;;;;;5073172;28;20723;-15
2022/06/12 10:29:25;;;;;;;13.13;2.17;;;;;;;;;;5073004;28;20243;-15
2022/06/12 10:31:56;;;;;;;6.63;2.00;;;;;;;;;;5073766;28;20692;-15
2022/06/12 10:34:24;;;;;;;7.97;2.53;;;;;;;;;;5072384;28;20659;-15
2022/06/12 10:36:52;;;;;;;5.50;2.05;;;;;;;;;;5072851;28;20239;-15
2022/06/12 10:39:20;;;;;;;5.30;2.08;;;;;;;;;;5071955;28;20688;-15
2022/06/12 10:41:49;;;;;;;6.25;1.95;;;;;;;;;;5073029;28;20224;-15
2022/06/12 10:44:31;;;;;;;6.10;2.25;;;;;;;;;;5072083;28;21045;-15
2022/06/12 10:47:08;;;;;;;7.68;2.25;;;;;;;;;;5073332;28;20233;-15
2022/06/12 10:49:36;;;;;;;8.77;2.28;;;;;;;;;;5072782;28;20238;-15
2022/06/12 10:52:05;;;;;;;9.38;2.55;;;;;;;;;;5072466;28;20229;-15
2022/06/12 10:54:36;;;;;;;8.48;2.00;;;;;;;;;;5072396;28;20229;-15
2022/06/12 10:57:07;;;;;;;6.43;1.92;;;;;;;;;;5071759;28;20229;-15
2022/06/12 10:59:37;;;;;;;9.35;2.63;;;;;;;;;;5072827;28;20311;-15
2022/06/12 11:02:26;;;;;;;6.80;2.33;;;;;;;;;;5072375;28;20578;-15
2022/06/12 11:04:56;;;;;;;6.65;2.22;;;;;;;;;;5072237;28;20276;-15
2022/06/12 11:07:25;;;;;;;5.95;2.03;;;;;;;;;;5072176;28;20974;-15
2022/06/12 11:10:08;;;;;;;6.35;2.30;;;;;;;;;;5072805;28;20229;-15
2022/06/12 11:12:50;;;;;;;6.07;2.33;;;;;;;;;;5071532;28;20265;-15
2022/06/12 11:15:25;;;;;;;6.07;2.28;;;;;;;;;;5071998;28;20855;-15
2022/06/12 11:17:59;;;;;;;6.65;2.20;;;;;;;;;;5060921;28;20225;-15
2022/06/12 11:20:30;;;;;;;5.40;2.08;;;;;;;;;;5072327;28;20996;-15
2022/06/12 11:23:04;;;;;;;8.60;2.40;;;;;;;;;;5072091;28;20972;-15
2022/06/12 11:25:55;;;;;;;7.15;2.28;;;;;;;;;;5072366;28;20233;-15
2022/06/12 11:28:26;;;;;;;10.70;2.40;;;;;;;;;;5070914;28;20585;-14
2022/06/12 11:30:56;;;;;;;9.07;2.40;;;;;;;;;;5067516;28;20226;-15
2022/06/12 11:33:33;;;;;;;11.23;2.47;;;;;;;;;;5072063;28;20292;-15
2022/06/12 11:36:02;;;;;;;9.57;2.67;;;;;;;;;;5067992;28;20265;-15
2022/06/12 11:38:35;;;;;;;5.53;2.05;;;;;;;;;;5072384;28;20233;-15
2022/06/12 11:41:04;;;;;;;7.53;2.40;;;;;;;;;;5069585;28;20225;-15
2022/06/12 11:43:32;;;;;;;8.18;2.58;;;;;;;;;;5072065;28;20226;-15
2022/06/12 11:46:06;;;;;;;7.35;2.63;;;;;;;;;;5066023;28;20237;-15
2022/06/12 11:48:36;;;;;;;6.53;2.05;;;;;;;;;;5072042;28;20348;-15
2022/06/12 11:51:07;;;;;;;8.88;2.92;;;;;;;;;;5071389;28;20232;-15
2022/06/12 11:53:38;;;;;;;10.13;3.03;;;;;;;;;;5072277;28;20232;-15
2022/06/12 11:56:06;;;;;;;7.57;2.38;;;;;;;;;;5071521;28;20227;-15
2022/06/12 11:58:41;;;;;;;10.63;2.88;;;;;;;;;;5071747;28;20240;-15
2022/06/12 12:01:11;;;;;;;9.93;2.85;;;;;;;;;;5071172;28;20224;-15
2022/06/12 12:04:02;;;;;;;7.93;2.90;;;;;;;;;;5070996;28;20221;-15
2022/06/12 12:06:42;;;;;;;9.15;2.78;;;;;;;;;;5066231;28;20245;-15
2022/06/12 12:09:13;;;;;;;9.13;2.60;;;;;;;;;;5071711;28;20229;-15
2022/06/12 12:11:42;;;;;;;8.07;2.55;;;;;;;;;;5072071;28;20241;-15
2022/06/12 12:14:10;;;;;;;9.45;2.80;;;;;;;;;;5070734;28;20238;-15
2022/06/12 12:16:40;;;;;;;7.75;2.88;;;;;;;;;;5072027;28;20961;-15
2022/06/12 12:19:11;;;;;;;6.25;2.38;;;;;;;;;;5071645;28;20371;-15
2022/06/12 12:21:39;;;;;;;5.60;2.60;;;;;;;;;;5070759;28;20248;-15
2022/06/12 12:24:07;;;;;;;5.78;2.15;;;;;;;;;;5070630;28;20238;-15
2022/06/12 12:26:35;;;;;;;8.20;2.70;;;;;;;;;;5071428;28;20240;-15
2022/06/12 12:29:03;;;;;;;9.45;3.20;;;;;;;;;;5071395;28;20229;-15
2022/06/12 12:31:31;;;;;;;9.15;2.75;;;;;;;;;;5071285;28;20232;-15
2022/06/12 12:34:00;;;;;;;5.82;2.60;;;;;;;;;;5071658;28;20233;-15
2022/06/12 12:42:18;;;;;;;8.23;2.88;;;;;;;;;;5071485;28;20236;-15
2022/06/12 12:44:46;;;;;;;10.57;2.97;;;;;;;;;;5070854;28;20260;-15
2022/06/12 12:47:17;;;;;;;6.68;2.65;;;;;;;;;;5069637;28;20244;-14
2022/06/12 12:49:46;;;;;;;7.00;2.60;;;;;;;;;;5070590;28;20240;-15
2022/06/12 12:52:15;;;;;;;7.25;2.50;;;;;;;;;;5071186;28;20237;-15
2022/06/12 12:54:43;;;;;;;4.30;2.05;;;;;;;;;;5071136;28;20237;-15
2022/06/12 12:57:10;;;;;;;6.88;1.98;;;;;;;;;;5069869;28;20733;-15
2022/06/12 12:59:38;;;;;;;5.00;2.13;;;;;;;;;;5070808;28;20230;-15
2022/06/12 13:02:13;;;;;;;5.63;2.15;;;;;;;;;;5071295;28;20236;-15
2022/06/12 13:04:41;;;;;;;3.80;2.25;;;;;;;;;;5070787;28;20270;-15
2022/06/12 13:07:12;;;;;;;4.68;2.03;;;;;;;;;;5070301;28;20234;-15
2022/06/12 13:09:45;;;;;;;5.60;2.15;;;;;;;;;;5060744;28;20265;-15
2022/06/12 13:12:21;;;;;;;6.88;2.03;;;;;;;;;;5070160;28;20289;-15
2022/06/12 13:14:53;;;;;;;6.93;2.22;;;;;;;;;;5070832;28;20742;-15
2022/06/12 13:17:27;;;;;;;7.72;3.72;;;;;;;;;;5070724;28;20236;-15
2022/06/12 13:19:59;;;;;;;5.15;2.13;;;;;;;;;;5069381;28;20233;-15
2022/06/12 13:22:31;;;;;;;8.70;2.65;;;;;;;;;;5070076;28;20261;-15
2022/06/12 13:25:00;;;;;;;5.20;1.92;;;;;;;;;;5070804;28;20271;-15
2022/06/12 13:27:29;;;;;;;7.00;2.35;;;;;;;;;;5070540;28;20628;-15
2022/06/12 13:29:56;;;;;;;5.35;2.13;;;;;;;;;;5069946;28;20328;-14
2022/06/12 13:32:25;;;;;;;5.50;1.80;;;;;;;;;;5070378;28;20221;-15
2022/06/12 13:35:19;;;;;;;6.78;2.65;;;;;;;;;;5070599;28;20233;-15
2022/06/12 13:37:50;;;;;;;7.15;2.28;;;;;;;;;;5069710;28;20718;-15
2022/06/12 13:40:22;;;;;;;5.05;2.33;;;;;;;;;;5070016;28;20229;-15
2022/06/12 13:42:49;;;;;;;6.35;2.00;;;;;;;;;;5070581;28;20289;-15
2022/06/12 13:45:18;;;;;;;5.35;1.88;;;;;;;;;;5070546;28;20267;-15
2022/06/12 13:47:45;;;;;;;6.03;2.03;;;;;;;;;;5070730;28;20255;-15
2022/06/12 13:50:32;;;;;;;6.28;2.28;;;;;;;;;;5070072;28;20233;-15
2022/06/12 13:53:01;;;;;;;4.45;1.80;;;;;;;;;;5071580;28;20236;-15
2022/06/12 13:55:31;;;;;;;5.63;1.67;;;;;;;;;;5073526;28;20245;-15
2022/06/12 13:57:59;;;;;;;5.03;1.67;;;;;;;;;;5074089;28;20236;-15
2022/06/12 14:00:32;;;;;;;3.25;1.42;;;;;;;;;;5073799;28;20289;-15
2022/06/12 14:03:00;;;;;;;4.97;1.63;;;;;;;;;;5072480;28;20678;-15
2022/06/12 14:05:28;;;;;;;5.70;1.50;;;;;;;;;;5073898;28;20233;-15
2022/06/12 14:07:55;;;;;;;5.28;1.85;;;;;;;;;;5074237;28;20221;-15
2022/06/12 14:10:26;;;;;;;6.72;1.50;;;;;;;;;;5073988;28;20237;-15
2022/06/12 14:12:53;;;;;;;5.22;1.65;;;;;;;;;;5073978;28;20669;-15
2022/06/12 14:15:25;;;;;;;2.65;1.10;;;;;;;;;;5072555;28;20238;-15
2022/06/12 14:17:52;;;;;;;4.90;1.23;;;;;;;;;;5060165;28;20291;-15
2022/06/12 14:20:23;;;;;;;4.55;1.20;;;;;;;;;;5073833;28;20232;-15
2022/06/12 14:22:50;;;;;;;3.17;1.00;;;;;;;;;;5073181;28;20724;-15
2022/06/12 14:25:20;;;;;;;3.60;0.93;;;;;;;;;;5072523;28;20241;-15
2022/06/12 14:27:55;;;;;;;4.00;1.23;;;;;;;;;;5072609;28;20225;-15
2022/06/12 14:30:38;;;;;;;4.70;1.38;;;;;;;;;;5073715;28;20229;-15
2022/06/12 14:33:33;;;;;;;3.05;1.20;;;;;;;;;;5061363;28;20260;-15
2022/06/12 14:36:00;;;;;;;2.95;1.17;;;;;;;;;;5068351;28;20230;-15
2022/06/12 14:38:28;;;;;;;4.70;1.00;;;;;;;;;;5063773;28;20335;-15
2022/06/12 14:40:56;;;;;;;6.88;1.42;;;;;;;;;;5073061;28;20229;-15
2022/06/12 14:43:27;;;;;;;3.72;1.30;;;;;;;;;;5073288;28;20233;-15
2022/06/12 14:45:55;;;;;;;4.22;1.25;;;;;;;;;;5072962;28;20572;-15
2022/06/12 14:48:23;;;;;;;3.72;1.10;;;;;;;;;;5072658;28;20226;-15
2022/06/12 14:50:51;;;;;;;4.13;1.30;;;;;;;;;;5072910;28;21061;-15
2022/06/12 14:53:18;;;;;;;4.07;1.27;;;;;;;;;;5072091;28;20237;-15
2022/06/12 14:55:46;;;;;;;4.47;1.58;;;;;;;;;;5072192;28;20230;-15
2022/06/12 14:58:14;;;;;;;5.57;1.23;;;;;;;;;;5072275;28;20239;-15
2022/06/12 15:00:43;;;;;;;2.10;1.17;;;;;;;;;;5072373;28;20240;-15
2022/06/12 15:03:12;;;;;;;3.90;1.30;;;;;;;;;;5072205;28;20708;-15
2022/06/12 15:05:40;;;;;;;5.28;1.50;;;;;;;;;;5072510;28;20237;-15
2022/06/12 15:08:08;;;;;;;3.47;1.30;;;;;;;;;;5072234;28;20651;-15
2022/06/12 15:10:36;;;;;;;3.42;1.42;;;;;;;;;;5072605;28;20233;-15